Time;durP1;ratioP1;P1;durP2;ratioP2;P2;SDS_P1;SDS_P2;PMS_P1;PMS_P2;Temp;Humidity;BMP_temperature;BMP_pressure;BME280_temperature;BME280_humidity;BME280_pressure;Samples;Min_cycle;Max_cycle;Signal;HPM_P1;HPM_P2
2022/06/14 00:00:53;;;;;;;16.75;7.55;;;22.00;54.00;;;;;;6204930;28;20038;-68
2022/06/14 00:02:57;;;;;;;17.00;7.65;;;22.00;54.00;;;;;;6192182;28;20363;-68
2022/06/14 00:06:04;;;;;;;14.52;6.90;;;22.00;54.10;;;;;;6215829;28;20036;-68
2022/06/14 00:09:05;;;;;;;13.88;7.10;;;22.00;54.00;;;;;;6210023;28;20445;-68
2022/06/14 00:12:06;;;;;;;17.35;7.65;;;22.00;54.00;;;;;;6192380;28;20022;-68
2022/06/14 00:15:07;;;;;;;14.48;7.10;;;22.00;54.10;;;;;;6207968;28;20586;-68
2022/06/14 00:18:09;;;;;;;12.77;6.78;;;22.00;54.00;;;;;;6216978;28;20026;-68
2022/06/14 00:21:09;;;;;;;16.10;7.10;;;22.00;54.10;;;;;;6212949;28;20053;-68
2022/06/14 00:24:10;;;;;;;14.50;6.78;;;22.00;54.10;;;;;;6217445;28;20080;-67
2022/06/14 00:27:11;;;;;;;13.27;7.20;;;22.00;54.10;;;;;;6217189;28;20026;-68
2022/06/14 00:30:12;;;;;;;14.10;7.38;;;22.00;54.10;;;;;;6203167;28;20022;-68
2022/06/14 00:33:13;;;;;;;13.90;7.40;;;22.00;54.10;;;;;;6212000;28;20128;-68
2022/06/14 00:36:32;;;;;;;12.57;6.30;;;22.00;54.00;;;;;;6195960;28;20084;-68
2022/06/14 00:39:33;;;;;;;11.45;6.38;;;22.00;54.10;;;;;;6198980;28;20033;-68
2022/06/14 00:42:34;;;;;;;12.05;6.32;;;22.00;54.10;;;;;;6216747;28;20303;-68
2022/06/14 00:45:34;;;;;;;11.45;6.20;;;22.00;54.10;;;;;;6212300;28;20477;-68
2022/06/14 00:48:35;;;;;;;11.98;5.85;;;22.00;54.00;;;;;;6216740;28;20605;-68
2022/06/14 00:51:46;;;;;;;12.88;6.18;;;22.00;54.10;;;;;;6194064;28;20018;-68
2022/06/14 00:54:54;;;;;;;11.40;6.07;;;22.00;54.10;;;;;;6214833;28;20504;-68
2022/06/14 00:58:10;;;;;;;11.02;5.80;;;22.00;54.10;;;;;;6218433;28;20508;-68
2022/06/14 01:01:20;;;;;;;11.65;5.95;;;22.00;54.10;;;;;;6204313;28;20069;-68
2022/06/14 01:04:27;;;;;;;11.70;5.68;;;22.00;54.10;;;;;;6200424;28;20033;-68
2022/06/14 01:07:32;;;;;;;12.85;5.88;;;22.00;54.10;;;;;;6222788;28;20026;-68
2022/06/14 01:10:33;;;;;;;10.40;5.78;;;22.00;54.10;;;;;;6211993;28;20100;-68
2022/06/14 01:13:35;;;;;;;12.35;6.32;;;22.00;54.10;;;;;;6198221;28;20065;-68
2022/06/14 01:16:37;;;;;;;10.57;5.47;;;22.00;54.10;;;;;;6216642;28;20030;-68
2022/06/14 01:19:39;;;;;;;8.48;4.97;;;22.00;54.10;;;;;;6220301;28;20033;-68
2022/06/14 01:22:40;;;;;;;11.18;5.88;;;22.00;54.10;;;;;;6197368;28;20030;-67
2022/06/14 01:25:49;;;;;;;10.93;5.47;;;22.00;54.10;;;;;;6207679;28;20419;-68
2022/06/14 01:28:54;;;;;;;9.48;4.88;;;22.00;54.10;;;;;;6222445;28;20033;-68
2022/06/14 01:32:00;;;;;;;7.55;4.85;;;22.00;54.10;;;;;;6202331;28;20037;-68
2022/06/14 01:35:02;;;;;;;;;;;22.00;54.10;;;;;;6198457;28;20022;-68
2022/06/14 01:38:09;;;;;;;8.38;4.85;;;22.00;54.10;;;;;;6197224;28;19918;-68
2022/06/14 01:41:24;;;;;;;9.98;4.82;;;22.00;54.10;;;;;;6208504;28;20099;-68
2022/06/14 01:44:53;;;;;;;10.73;4.90;;;22.00;54.10;;;;;;6211343;28;20026;-68
2022/06/14 01:48:01;;;;;;;7.50;4.32;;;22.00;54.10;;;;;;6195158;28;20074;-68
2022/06/14 01:54:53;;;;;;;8.38;4.13;;;22.00;54.10;;;;;;6221565;28;20826;-68
2022/06/14 01:57:56;;;;;;;9.05;4.30;;;22.00;54.10;;;;;;6175778;28;20536;-68
2022/06/14 02:01:34;;;;;;;8.05;4.40;;;22.00;54.10;;;;;;6213408;28;20030;-68
2022/06/14 02:04:53;;;;;;;9.82;4.50;;;22.00;54.20;;;;;;6221299;28;20026;-68
2022/06/14 02:08:19;;;;;;;7.80;4.30;;;21.90;54.10;;;;;;6220965;28;20026;-68
2022/06/14 02:11:28;;;;;;;8.32;4.22;;;22.00;54.10;;;;;;6207854;28;20030;-68
2022/06/14 02:14:50;;;;;;;6.80;3.97;;;22.00;54.10;;;;;;6203430;28;20057;-68
2022/06/14 02:18:08;;;;;;;6.13;3.40;;;21.90;54.10;;;;;;6200349;28;20452;-68
2022/06/14 02:21:15;;;;;;;7.22;3.63;;;22.00;54.10;;;;;;6201374;28;20116;-68
2022/06/14 02:24:22;;;;;;;8.68;4.07;;;22.00;54.20;;;;;;6220238;28;20034;-68
2022/06/14 02:27:50;;;;;;;7.47;3.83;;;22.00;54.20;;;;;;6205846;28;20026;-68
2022/06/14 02:30:58;;;;;;;9.48;4.00;;;21.90;54.10;;;;;;6199314;28;20034;-68
2022/06/14 02:34:05;;;;;;;7.22;4.13;;;21.90;54.10;;;;;;6195378;28;20026;-68
2022/06/14 02:37:11;;;;;;;8.85;4.15;;;22.00;54.10;;;;;;6196204;28;20105;-68
2022/06/14 02:40:18;;;;;;;;;;;22.00;54.10;;;;;;6196592;28;20049;-68
2022/06/14 02:43:38;;;;;;;6.88;3.83;;;22.00;54.10;;;;;;6214859;28;19906;-67
2022/06/14 02:46:48;;;;;;;5.32;2.97;;;21.90;54.10;;;;;;6201988;28;20026;-68
2022/06/14 02:50:03;;;;;;;5.03;3.28;;;22.00;54.20;;;;;;6220963;28;20026;-68
2022/06/14 02:53:29;;;;;;;5.78;3.53;;;21.90;54.10;;;;;;6209033;28;20096;-68
2022/06/14 02:56:41;;;;;;;6.60;3.58;;;21.90;54.10;;;;;;6204717;28;20100;-68
2022/06/14 03:00:18;;;;;;;5.85;3.47;;;22.00;54.10;;;;;;6195512;28;20481;-68
2022/06/14 03:03:29;;;;;;;;;;;22.00;54.20;;;;;;6169113;28;20042;-67
2022/06/14 03:06:58;;;;;;;6.75;3.75;;;22.00;54.10;;;;;;6217707;28;20364;-68
2022/06/14 03:10:00;;;;;;;6.05;3.40;;;21.90;54.10;;;;;;6195717;28;20015;-68
2022/06/14 03:13:23;;;;;;;6.30;3.42;;;21.90;54.10;;;;;;6208506;28;20030;-68
2022/06/14 03:16:27;;;;;;;5.07;3.15;;;21.90;54.10;;;;;;6206211;28;20065;-68
2022/06/14 03:19:43;;;;;;;5.43;3.45;;;21.90;54.10;;;;;;6194558;28;20038;-68
2022/06/14 03:23:03;;;;;;;6.20;3.10;;;21.90;54.10;;;;;;6204481;28;20045;-68
2022/06/14 03:26:13;;;;;;;6.53;3.00;;;21.90;54.10;;;;;;6218193;28;20061;-68
2022/06/14 03:29:23;;;;;;;5.75;3.10;;;21.90;54.10;;;;;;6196246;28;20027;-68
2022/06/14 03:33:04;;;;;;;4.60;2.88;;;22.00;54.20;;;;;;6193143;28;20089;-68
2022/06/14 03:36:06;;;;;;;6.60;3.38;;;22.00;54.10;;;;;;6190648;28;20129;-68
2022/06/14 03:39:17;;;;;;;5.38;2.90;;;21.90;54.10;;;;;;6214133;28;20388;-68
2022/06/14 03:42:18;;;;;;;4.82;2.67;;;21.90;54.10;;;;;;6214078;28;20030;-68
2022/06/14 03:45:32;;;;;;;5.20;2.70;;;21.90;54.10;;;;;;6210800;28;20033;-68
2022/06/14 03:48:35;;;;;;;5.85;2.45;;;22.00;54.20;;;;;;6205125;28;20102;-68
2022/06/14 03:52:00;;;;;;;5.15;2.65;;;21.90;54.10;;;;;;6193782;28;20327;-68
2022/06/14 03:55:36;;;;;;;4.68;2.60;;;21.90;54.10;;;;;;6216634;28;20034;-68
2022/06/14 03:58:49;;;;;;;4.10;2.42;;;21.90;54.10;;;;;;6205586;28;20030;-68
2022/06/14 04:02:08;;;;;;;5.28;2.28;;;21.90;54.10;;;;;;6194454;28;20038;-68
2022/06/14 04:05:19;;;;;;;4.32;2.50;;;21.90;54.10;;;;;;6194166;28;20437;-68
2022/06/14 04:08:38;;;;;;;4.22;2.08;;;21.90;54.10;;;;;;6194180;28;20509;-68
2022/06/14 04:12:07;;;;;;;3.55;2.25;;;22.00;54.20;;;;;;6193771;28;20102;-68
2022/06/14 04:15:25;;;;;;;4.75;2.63;;;21.90;54.10;;;;;;6217162;28;20022;-68
2022/06/14 04:18:41;;;;;;;4.22;2.42;;;21.90;54.10;;;;;;6209341;28;20069;-68
2022/06/14 04:21:48;;;;;;;3.80;2.00;;;21.90;54.10;;;;;;6193586;28;20034;-68
2022/06/14 04:25:02;;;;;;;4.03;2.30;;;21.90;54.10;;;;;;6212813;28;20034;-68
2022/06/14 04:28:18;;;;;;;4.10;2.17;;;22.00;54.30;;;;;;6214182;28;20030;-68
2022/06/14 04:31:29;;;;;;;3.55;2.30;;;22.00;54.20;;;;;;6192396;28;20022;-68
2022/06/14 04:34:45;;;;;;;3.33;2.25;;;22.00;54.30;;;;;;6196601;28;20037;-68
2022/06/14 04:37:56;;;;;;;4.45;2.53;;;22.00;54.20;;;;;;6199587;28;20783;-68
2022/06/14 04:41:04;;;;;;;3.35;1.98;;;21.90;54.10;;;;;;6221653;28;20038;-68
2022/06/14 04:44:12;;;;;;;3.35;2.15;;;21.90;54.10;;;;;;6218181;28;20440;-68
2022/06/14 04:47:28;;;;;;;3.95;2.17;;;22.00;54.30;;;;;;6221779;28;20163;-68
2022/06/14 04:50:41;;;;;;;3.80;2.10;;;21.90;54.20;;;;;;6200047;28;20026;-68
2022/06/14 04:54:06;;;;;;;4.22;2.35;;;22.00;54.20;;;;;;6202929;28;20029;-68
2022/06/14 04:57:17;;;;;;;3.45;1.88;;;22.00;54.30;;;;;;6198746;28;20018;-68
2022/06/14 05:00:41;;;;;;;3.50;2.10;;;22.00;54.30;;;;;;6214942;28;20076;-68
2022/06/14 05:03:50;;;;;;;3.47;2.10;;;22.00;54.30;;;;;;6201949;28;20038;-68
2022/06/14 05:06:56;;;;;;;3.67;2.13;;;22.00;54.30;;;;;;6222834;28;20631;-68
2022/06/14 05:09:59;;;;;;;3.03;2.08;;;22.00;54.30;;;;;;6208144;28;20509;-68
2022/06/14 05:13:20;;;;;;;2.47;1.67;;;22.00;54.20;;;;;;6197322;28;20591;-68
2022/06/14 05:16:32;;;;;;;3.10;1.85;;;22.00;54.20;;;;;;6197850;28;20037;-68
2022/06/14 05:19:54;;;;;;;4.22;2.10;;;22.00;54.20;;;;;;6197667;28;20042;-68
2022/06/14 05:23:05;;;;;;;3.25;1.85;;;22.00;54.30;;;;;;6197496;28;20389;-68
2022/06/14 05:26:19;;;;;;;3.60;1.95;;;22.00;54.40;;;;;;6197700;28;20033;-68
2022/06/14 05:29:40;;;;;;;3.25;2.13;;;22.00;54.30;;;;;;6203832;28;20018;-68
2022/06/14 05:33:02;;;;;;;2.97;1.80;;;22.00;54.30;;;;;;6220727;28;20018;-68
2022/06/14 05:36:36;;;;;;;3.45;1.95;;;21.90;54.20;;;;;;6200495;28;20078;-68
2022/06/14 05:39:47;;;;;;;3.95;2.00;;;21.90;54.20;;;;;;6173661;28;20046;-68
2022/06/14 05:42:55;;;;;;;3.15;1.83;;;22.00;54.30;;;;;;6195905;28;20022;-68
2022/06/14 05:46:26;;;;;;;3.63;1.80;;;22.00;54.30;;;;;;6201481;28;20029;-68
2022/06/14 05:49:33;;;;;;;3.92;1.90;;;22.00;54.30;;;;;;6194256;28;20032;-67
2022/06/14 05:52:57;;;;;;;2.13;1.50;;;22.00;54.30;;;;;;6219113;28;20047;-68
2022/06/14 05:56:06;;;;;;;3.60;1.73;;;22.00;54.30;;;;;;6204516;28;20018;-68
2022/06/14 05:59:10;;;;;;;2.88;1.90;;;21.90;54.20;;;;;;6197630;28;20096;-68
2022/06/14 06:02:20;;;;;;;3.00;1.60;;;22.00;54.30;;;;;;6218782;28;20018;-68
2022/06/14 06:05:31;;;;;;;2.80;1.75;;;22.00;54.30;;;;;;6213154;28;20513;-68
2022/06/14 06:08:43;;;;;;;3.30;1.88;;;22.00;54.30;;;;;;6208142;28;20561;-68
2022/06/14 06:11:55;;;;;;;3.97;2.00;;;22.00;54.30;;;;;;6202505;28;20025;-68
2022/06/14 06:15:02;;;;;;;3.53;1.88;;;22.00;54.30;;;;;;6204120;28;20058;-68
2022/06/14 06:18:15;;;;;;;3.72;2.03;;;22.00;54.30;;;;;;6223011;28;20026;-68
2022/06/14 06:21:38;;;;;;;3.65;2.10;;;22.00;54.30;;;;;;6206833;28;20121;-68
2022/06/14 06:24:43;;;;;;;3.47;2.00;;;21.90;54.20;;;;;;6200417;28;20145;-68
2022/06/14 06:27:47;;;;;;;;;;;21.90;54.20;;;;;;6223431;28;20033;-68
2022/06/14 06:31:06;;;;;;;2.85;1.98;;;22.00;54.30;;;;;;6212001;28;19916;-68
2022/06/14 06:34:11;;;;;;;3.10;2.10;;;22.00;54.30;;;;;;6215212;28;20050;-68
2022/06/14 06:37:47;;;;;;;3.45;2.05;;;22.00;54.30;;;;;;6201753;28;20818;-68
2022/06/14 06:44:37;;;;;;;4.00;2.00;;;22.00;54.30;;;;;;6213424;28;20023;-68
2022/06/14 06:47:40;;;;;;;4.43;2.40;;;22.00;54.30;;;;;;6221076;28;20106;-68
2022/06/14 06:50:44;;;;;;;2.67;1.85;;;22.00;54.30;;;;;;6197636;28;20026;-68
2022/06/14 06:53:53;;;;;;;4.45;2.45;;;22.00;54.40;;;;;;6209276;28;20033;-68
2022/06/14 06:56:59;;;;;;;2.97;2.17;;;22.00;54.30;;;;;;6204935;28;20030;-68
2022/06/14 07:00:04;;;;;;;3.30;2.30;;;22.00;54.30;;;;;;6197145;28;20173;-68
2022/06/14 07:03:22;;;;;;;4.70;2.38;;;22.00;54.40;;;;;;6197265;28;20057;-68
2022/06/14 07:06:28;;;;;;;3.35;2.28;;;22.00;54.30;;;;;;6197279;28;20026;-68
2022/06/14 07:09:53;;;;;;;3.80;2.30;;;21.90;54.30;;;;;;6197328;28;20033;-69
2022/06/14 07:13:34;;;;;;;3.47;2.20;;;22.00;54.30;;;;;;6219249;28;20057;-68
2022/06/14 07:16:41;;;;;;;2.88;1.95;;;22.00;54.30;;;;;;6211523;28;20030;-68
2022/06/14 07:19:58;;;;;;;2.50;1.90;;;22.00;54.30;;;;;;6197465;28;20029;-68
2022/06/14 07:23:07;;;;;;;2.65;2.20;;;22.00;54.30;;;;;;6218404;28;20026;-68
2022/06/14 07:26:24;;;;;;;3.60;2.33;;;22.00;54.30;;;;;;6216132;28;20076;-68
2022/06/14 07:29:33;;;;;;;4.43;2.30;;;22.00;54.50;;;;;;6197333;28;20085;-68
2022/06/14 07:32:46;;;;;;;14.13;2.90;;;22.00;54.80;;;;;;6196120;28;20030;-68
2022/06/14 07:35:53;;;;;;;8.00;3.15;;;22.00;54.40;;;;;;6197780;28;20551;-68
2022/06/14 07:39:26;;;;;;;9.32;2.22;;;22.10;54.40;;;;;;6221140;28;20101;-68
2022/06/14 07:42:36;;;;;;;5.03;2.20;;;22.10;54.20;;;;;;6205969;28;20049;-67
2022/06/14 07:45:43;;;;;;;3.67;1.90;;;22.10;54.10;;;;;;6215619;28;20022;-68
2022/06/14 07:49:00;;;;;;;4.03;2.00;;;22.10;54.10;;;;;;6197068;28;20370;-68
2022/06/14 07:52:06;;;;;;;3.88;2.10;;;22.20;54.30;;;;;;6204858;28;20072;-68
2022/06/14 07:55:12;;;;;;;7.15;2.30;;;22.20;54.30;;;;;;6217533;28;20034;-67
2022/06/14 07:58:22;;;;;;;7.65;2.28;;;22.20;54.60;;;;;;6196885;28;20326;-68
2022/06/14 08:01:31;;;;;;;4.38;2.40;;;22.10;54.40;;;;;;6198446;28;20113;-68
2022/06/14 08:04:39;;;;;;;6.15;2.63;;;22.10;54.50;;;;;;6220302;28;20080;-68
2022/06/14 08:07:42;;;;;;;5.97;2.10;;;22.10;54.40;;;;;;6206650;28;20037;-68
2022/06/14 08:10:47;;;;;;;3.30;2.25;;;22.10;54.30;;;;;;6220250;28;20026;-67
2022/06/14 08:13:52;;;;;;;;;;;22.10;54.30;;;;;;6199759;28;20461;-67
2022/06/14 08:16:54;;;;;;;4.85;2.58;;;22.10;54.30;;;;;;6201075;28;19928;-68
2022/06/14 08:20:40;;;;;;;3.00;2.10;;;22.10;54.30;;;;;;6220079;28;20037;-68
2022/06/14 08:23:52;;;;;;;3.20;1.92;;;22.10;54.20;;;;;;6201980;28;20026;-67
2022/06/14 08:27:01;;;;;;;2.80;2.17;;;22.10;54.10;;;;;;6199652;28;20029;-68
2022/06/14 08:30:15;;;;;;;5.40;2.10;;;22.10;53.90;;;;;;6220129;28;20105;-68
2022/06/14 08:33:28;;;;;;;5.50;2.22;;;22.10;53.70;;;;;;6206474;28;20419;-67
2022/06/14 08:36:45;;;;;;;9.00;3.20;;;22.00;53.60;;;;;;6196199;28;20050;-67
2022/06/14 08:39:53;;;;;;;4.20;2.00;;;22.00;52.50;;;;;;6212010;28;20065;-67
2022/06/14 08:43:01;;;;;;;5.57;2.17;;;22.00;52.60;;;;;;6210432;28;20030;-67
2022/06/14 08:46:20;;;;;;;7.75;2.20;;;22.00;52.30;;;;;;6219046;28;20018;-67
2022/06/14 08:49:51;;;;;;;9.02;2.70;;;22.00;52.60;;;;;;6208988;28;20041;-67
2022/06/14 08:53:10;;;;;;;5.57;2.33;;;22.00;52.60;;;;;;6219766;28;20073;-67
2022/06/14 08:56:26;;;;;;;6.38;1.95;;;22.00;52.60;;;;;;6220314;28;20045;-67
2022/06/14 08:59:45;;;;;;;5.30;2.13;;;22.00;52.70;;;;;;6216395;28;20373;-67
2022/06/14 09:03:04;;;;;;;24.65;3.28;;;22.00;53.20;;;;;;6196698;28;20499;-68
2022/06/14 09:06:33;;;;;;;12.73;2.70;;;22.10;54.10;;;;;;6195991;28;20084;-68
2022/06/14 09:09:34;;;;;;;5.85;2.40;;;22.10;54.50;;;;;;6215486;28;20029;-68
2022/06/14 09:13:00;;;;;;;8.15;2.70;;;22.20;53.20;;;;;;6217349;28;20018;-66
2022/06/14 09:16:07;;;;;;;10.35;3.58;;;22.20;53.70;;;;;;6188651;28;20045;-69
2022/06/14 09:19:08;;;;;;;10.43;2.60;;;22.20;54.10;;;;;;6210936;28;20393;-69
2022/06/14 09:22:13;;;;;;;6.97;2.58;;;22.20;53.90;;;;;;6224756;28;20484;-69
2022/06/14 09:25:46;;;;;;;6.93;1.88;;;22.20;53.60;;;;;;6201746;28;20170;-68
2022/06/14 09:29:21;;;;;;;34.80;4.20;;;22.20;53.50;;;;;;6210782;28;20030;-68
2022/06/14 09:32:30;;;;;;;6.03;2.75;;;22.20;54.10;;;;;;6224139;28;20401;-68
2022/06/14 09:35:40;;;;;;;5.50;2.20;;;22.30;53.80;;;;;;6200438;28;20118;-68
2022/06/14 09:39:25;;;;;;;8.18;2.45;;;22.30;53.90;;;;;;6199648;28;20050;-68
2022/06/14 09:42:51;;;;;;;19.25;3.20;;;22.30;53.90;;;;;;6200044;28;20038;-68
2022/06/14 09:46:28;;;;;;;41.08;5.18;;;22.30;54.90;;;;;;6221103;28;20041;-68
2022/06/14 09:49:38;;;;;;;45.60;5.05;;;22.30;54.70;;;;;;6224277;28;20018;-68
2022/06/14 09:53:08;;;;;;;29.77;4.57;;;22.30;54.50;;;;;;6222766;28;20022;-69
2022/06/14 09:56:20;;;;;;;21.23;3.70;;;22.30;54.20;;;;;;6199280;28;20370;-68
2022/06/14 09:59:54;;;;;;;14.48;3.20;;;22.30;54.30;;;;;;6211062;28;20505;-68
2022/06/14 10:03:11;;;;;;;11.02;2.60;;;22.30;54.30;;;;;;6224020;28;20540;-69
2022/06/14 10:06:56;;;;;;;12.13;2.75;;;22.20;54.30;;;;;;6199403;28;20022;-69
2022/06/14 10:10:24;;;;;;;7.17;2.60;;;22.20;54.20;;;;;;6190979;28;20034;-69
2022/06/14 10:13:36;;;;;;;8.30;2.75;;;22.20;54.40;;;;;;6222178;28;20022;-68
2022/06/14 10:17:05;;;;;;;5.03;2.58;;;22.30;54.30;;;;;;6199374;28;20034;-69
2022/06/14 10:20:15;;;;;;;4.05;2.40;;;22.20;54.20;;;;;;6213448;28;20030;-69
2022/06/14 10:23:56;;;;;;;5.47;2.55;;;22.30;54.30;;;;;;6223143;28;20037;-68
2022/06/14 10:31:14;;;;;;;7.63;3.78;;;22.40;54.70;;;;;;6111991;29;20076;-69
2022/06/14 10:34:29;;;;;;;7.78;3.50;;;22.50;54.70;;;;;;6117152;28;20056;-69
2022/06/14 10:37:52;;;;;;;7.80;3.30;;;22.50;54.70;;;;;;6222946;28;20500;-69
2022/06/14 10:40:59;;;;;;;10.18;3.83;;;22.50;54.80;;;;;;6205305;28;20122;-69
2022/06/14 10:43:59;;;;;;;7.82;3.30;;;22.50;54.60;;;;;;6202329;28;20018;-69
2022/06/14 10:47:17;;;;;;;7.30;3.15;;;22.50;54.50;;;;;;6198423;28;20512;-68
2022/06/14 10:50:25;;;;;;;8.48;3.78;;;22.50;54.50;;;;;;6210189;28;20068;-69
2022/06/14 10:53:35;;;;;;;9.43;3.70;;;22.50;54.60;;;;;;6221827;28;20255;-69
2022/06/14 10:56:53;;;;;;;8.75;3.55;;;22.50;55.30;;;;;;6222616;28;20029;-69
2022/06/14 11:00:21;;;;;;;7.90;3.15;;;22.40;55.00;;;;;;6214864;28;20085;-69
2022/06/14 11:03:52;;;;;;;10.75;3.33;;;22.50;55.10;;;;;;6197929;28;20568;-68
2022/06/14 11:07:02;;;;;;;11.93;3.70;;;22.50;55.70;;;;;;6220032;28;20084;-68
2022/06/14 11:10:27;;;;;;;10.52;3.42;;;22.40;56.10;;;;;;6215622;28;20485;-68
2022/06/14 11:13:54;;;;;;;10.73;3.25;;;22.40;55.40;;;;;;6197868;28;20030;-68
2022/06/14 11:17:04;;;;;;;9.98;3.50;;;22.50;55.30;;;;;;6219203;28;20026;-68
2022/06/14 11:20:17;;;;;;;8.93;3.17;;;22.50;55.20;;;;;;6216360;28;20477;-68
2022/06/14 11:23:40;;;;;;;6.35;3.10;;;22.50;55.20;;;;;;6197176;28;20033;-68
2022/06/14 11:27:05;;;;;;;8.63;3.20;;;22.50;55.10;;;;;;6197924;28;20022;-68
2022/06/14 11:30:15;;;;;;;39.85;5.50;;;22.50;55.60;;;;;;6202039;28;20014;-68
2022/06/14 11:33:21;;;;;;;46.25;6.03;;;22.50;56.00;;;;;;6221842;28;20075;-68
2022/06/14 11:36:58;;;;;;;31.13;4.28;;;22.50;55.90;;;;;;6206846;28;20046;-69
2022/06/14 11:40:05;;;;;;;13.30;3.70;;;22.50;56.40;;;;;;6197204;28;20030;-69
2022/06/14 11:43:14;;;;;;;19.75;4.20;;;22.50;55.90;;;;;;6179199;28;20026;-69
2022/06/14 11:46:15;;;;;;;12.35;4.60;;;22.50;55.80;;;;;;6197230;28;20113;-69
2022/06/14 11:49:19;;;;;;;12.63;3.65;;;22.50;55.80;;;;;;6196848;28;20238;-69
2022/06/14 11:52:32;;;;;;;10.80;3.35;;;22.50;55.70;;;;;;6216741;28;20037;-69
2022/06/14 11:55:59;;;;;;;7.65;3.15;;;22.50;55.70;;;;;;6216332;28;20023;-69
2022/06/14 11:59:03;;;;;;;6.95;2.92;;;22.50;55.40;;;;;;6196442;28;20508;-69
2022/06/14 12:02:25;;;;;;;6.78;3.05;;;22.60;55.80;;;;;;6213621;28;20492;-68
2022/06/14 12:05:25;;;;;;;6.78;2.70;;;22.50;55.60;;;;;;6218789;28;20481;-68
2022/06/14 12:08:50;;;;;;;8.52;3.10;;;22.50;55.60;;;;;;6196770;28;20104;-68
2022/06/14 12:12:00;;;;;;;7.22;3.20;;;22.50;55.60;;;;;;6210504;28;20029;-69
2022/06/14 12:15:09;;;;;;;4.82;2.85;;;22.50;55.50;;;;;;6221291;28;20033;-69
2022/06/14 12:18:15;;;;;;;6.00;3.05;;;22.60;55.70;;;;;;6197665;28;20038;-69
2022/06/14 12:21:27;;;;;;;5.57;3.03;;;22.60;55.40;;;;;;6203699;28;20389;-69
2022/06/14 12:28:02;;;;;;;8.93;3.08;;;22.60;55.60;;;;;;6201416;28;20030;-69
2022/06/14 12:31:18;;;;;;;145.95;14.68;;;22.60;55.50;;;;;;6196081;28;20497;-69
2022/06/14 12:34:36;;;;;;;411.77;54.78;;;22.50;55.50;;;;;;6195580;28;20022;-69
2022/06/14 12:38:16;;;;;;;297.70;47.05;;;22.40;54.90;;;;;;6212617;28;20141;-68
2022/06/14 12:41:27;;;;;;;190.18;26.15;;;22.30;54.20;;;;;;6204218;28;20039;-68
2022/06/14 12:44:46;;;;;;;152.80;22.85;;;22.30;51.40;;;;;;6205787;28;20069;-69
2022/06/14 12:48:02;;;;;;;203.48;36.33;;;22.20;50.50;;;;;;6204263;28;20118;-69
2022/06/14 12:51:10;;;;;;;;;;;22.30;52.90;;;;;;6197887;28;20030;-68
2022/06/14 12:54:50;;;;;;;148.52;29.15;;;22.40;52.90;;;;;;6220485;28;19916;-68
2022/06/14 12:58:12;;;;;;;170.10;28.77;;;22.40;52.80;;;;;;6225092;28;20389;-68
2022/06/14 13:01:52;;;;;;;135.70;26.20;;;22.50;52.40;;;;;;6223592;28;20066;-68
2022/06/14 13:05:02;;;;;;;112.93;25.30;;;22.50;52.30;;;;;;6151984;28;20778;-69
2022/06/14 13:08:30;;;;;;;116.18;24.65;;;22.50;52.50;;;;;;6198548;28;20527;-68
2022/06/14 13:11:49;;;;;;;127.38;24.75;;;22.50;52.80;;;;;;6222490;28;20104;-68
2022/06/14 13:14:58;;;;;;;114.20;22.23;;;22.50;53.10;;;;;;6200826;28;20035;-69
2022/06/14 13:18:16;;;;;;;98.78;23.30;;;22.50;53.40;;;;;;6213896;28;20022;-69
2022/06/14 13:21:36;;;;;;;115.32;23.38;;;22.50;53.90;;;;;;6224746;28;20042;-68
2022/06/14 13:25:06;;;;;;;90.03;20.05;;;22.50;53.70;;;;;;6200045;28;20030;-68
2022/06/14 13:28:41;;;;;;;99.07;20.55;;;22.50;53.80;;;;;;6213775;28;20105;-69
2022/06/14 13:32:01;;;;;;;82.97;19.70;;;22.50;55.40;;;;;;6211733;28;20165;-69
2022/06/14 13:35:28;;;;;;;92.38;19.42;;;22.50;54.70;;;;;;6199882;28;20077;-68
2022/06/14 13:38:50;;;;;;;127.07;20.23;;;22.50;54.60;;;;;;6214479;28;20038;-69
2022/06/14 13:42:05;;;;;;;116.20;21.75;;;22.50;56.10;;;;;;6223150;28;20045;-69
2022/06/14 13:45:15;;;;;;;109.20;21.37;;;22.60;55.70;;;;;;6215437;28;20022;-68
2022/06/14 13:48:44;;;;;;;117.85;20.20;;;22.60;55.60;;;;;;6212705;28;20018;-69
2022/06/14 13:52:07;;;;;;;98.63;19.27;;;22.60;55.40;;;;;;6199425;28;20397;-69
2022/06/14 13:55:20;;;;;;;82.97;19.30;;;22.60;55.20;;;;;;6222793;28;20428;-68
2022/06/14 13:58:33;;;;;;;94.53;18.52;;;22.60;55.20;;;;;;6213925;28;20129;-69
2022/06/14 14:01:56;;;;;;;84.97;18.70;;;22.50;55.30;;;;;;6224122;28;20115;-69
2022/06/14 14:05:18;;;;;;;109.32;19.17;;;22.60;55.40;;;;;;6223334;28;20056;-69
2022/06/14 14:08:40;;;;;;;102.20;17.60;;;22.60;55.40;;;;;;6223161;28;20121;-69
2022/06/14 14:11:59;;;;;;;97.50;17.95;;;22.60;55.80;;;;;;6223661;28;20105;-69
2022/06/14 14:15:43;;;;;;;73.80;18.52;;;22.60;55.30;;;;;;6196344;28;20500;-69
2022/06/14 14:18:59;;;;;;;88.40;17.27;;;22.50;55.20;;;;;;6203414;28;20041;-69
2022/06/14 14:22:07;;;;;;;87.20;18.35;;;22.50;55.10;;;;;;6221337;28;20041;-69
2022/06/14 14:25:25;;;;;;;93.45;17.67;;;22.50;55.20;;;;;;6197295;28;20165;-69
2022/06/14 14:28:33;;;;;;;80.45;17.05;;;22.50;55.50;;;;;;6204687;28;20538;-74
2022/06/14 14:31:34;;;;;;;79.97;16.50;;;22.60;56.50;;;;;;6222028;28;20026;-75
2022/06/14 14:34:40;;;;;;;75.32;16.33;;;22.60;55.60;;;;;;6205848;28;20019;-77
2022/06/14 14:37:55;;;;;;;67.60;16.20;;;22.60;55.50;;;;;;6198141;28;20057;-81
2022/06/14 14:44:36;;;;;;;70.20;17.08;;;22.70;55.60;;;;;;6202534;28;20498;-73
2022/06/14 14:47:48;;;;;;;80.18;17.70;;;22.90;55.50;;;;;;6197741;28;20530;-76
2022/06/14 14:51:24;;;;;;;67.32;16.50;;;22.90;55.40;;;;;;6222006;28;20022;-72
2022/06/14 14:54:46;;;;;;;83.57;17.65;;;23.00;55.40;;;;;;6209010;28;20110;-72
2022/06/14 14:58:07;;;;;;;98.85;20.55;;;23.00;55.00;;;;;;6198337;28;20100;-76
2022/06/14 15:05:48;;;;;;;76.53;17.60;;;23.00;55.30;;;;;;6197571;28;20027;-74
2022/06/14 15:08:55;;;;;;;66.70;15.93;;;23.00;55.30;;;;;;6191934;28;20030;-72
2022/06/14 15:11:57;;;;;;;74.30;16.85;;;23.00;55.30;;;;;;6197766;28;20026;-77
2022/06/14 15:15:17;;;;;;;58.65;15.32;;;23.10;55.20;;;;;;6211640;28;20472;-77
2022/06/14 15:21:47;;;;;;;61.55;15.20;;;23.10;55.40;;;;;;6195337;28;20057;-73
2022/06/14 15:24:52;;;;;;;54.92;13.77;;;23.00;55.30;;;;;;6206734;28;20431;-74
2022/06/14 15:27:59;;;;;;;52.88;12.95;;;23.00;55.40;;;;;;6220994;28;20025;-80
2022/06/14 15:31:00;;;;;;;55.63;13.25;;;23.20;55.30;;;;;;6207862;28;20029;-73
2022/06/14 15:34:01;;;;;;;42.40;13.07;;;23.20;55.20;;;;;;6216658;28;20109;-76
2022/06/14 15:37:24;;;;;;;62.53;13.88;;;23.20;55.20;;;;;;6196039;28;20046;-73
2022/06/14 15:40:26;;;;;;;56.90;13.50;;;23.20;55.00;;;;;;6195508;28;20034;-76
2022/06/14 15:43:29;;;;;;;46.00;12.18;;;23.20;55.20;;;;;;6179729;28;20085;-73
2022/06/14 15:46:33;;;;;;;51.22;13.95;;;23.30;55.10;;;;;;6196872;28;20377;-78
2022/06/14 15:49:45;;;;;;;55.15;12.48;;;23.30;55.10;;;;;;6201530;28;20022;-74
2022/06/14 15:52:47;;;;;;;41.13;11.65;;;23.40;55.10;;;;;;6219025;28;20029;-74
2022/06/14 15:55:51;;;;;;;40.65;11.13;;;23.50;55.10;;;;;;6204177;28;20019;-75
2022/06/14 15:59:05;;;;;;;38.90;10.85;;;23.50;55.30;;;;;;6194638;28;20030;-76
2022/06/14 16:02:46;;;;;;;36.50;10.45;;;23.50;55.00;;;;;;6195189;28;20489;-75
2022/06/14 16:06:02;;;;;;;42.83;12.02;;;23.40;55.00;;;;;;6216791;28;20030;-78
2022/06/14 16:09:03;;;;;;;44.88;11.32;;;23.40;54.80;;;;;;6219502;28;20038;-77
2022/06/14 16:12:09;;;;;;;35.72;10.43;;;23.50;55.20;;;;;;6195557;28;20049;-75
2022/06/14 16:15:36;;;;;;;42.80;10.07;;;23.50;55.20;;;;;;6200087;28;20571;-73
2022/06/14 16:18:43;;;;;;;43.85;10.70;;;23.50;55.10;;;;;;6195950;28;20535;-79
2022/06/14 16:21:51;;;;;;;49.67;10.48;;;23.40;55.00;;;;;;6201795;28;20037;-74
2022/06/14 16:24:55;;;;;;;33.92;10.05;;;23.40;55.10;;;;;;6211579;28;20019;-76
2022/06/14 16:28:30;;;;;;;44.90;11.13;;;23.40;55.00;;;;;;6188136;28;20069;-75
2022/06/14 16:31:30;;;;;;;43.42;10.55;;;23.50;55.20;;;;;;6182230;28;20125;-74
2022/06/14 16:34:49;;;;;;;32.17;9.30;;;23.40;55.20;;;;;;6191148;28;20206;-75
2022/06/14 16:37:59;;;;;;;33.38;10.05;;;23.30;55.70;;;;;;6147199;28;1269445;-74
2022/06/14 16:41:08;;;;;;;29.35;9.85;;;23.40;56.00;;;;;;6202656;28;20069;-75
2022/06/14 16:44:24;;;;;;;28.38;8.77;;;23.40;56.30;;;;;;6216655;28;20030;-75
2022/06/14 16:47:33;;;;;;;26.85;8.63;;;23.40;56.30;;;;;;6194511;28;20472;-75
2022/06/14 16:50:49;;;;;;;31.23;9.40;;;23.40;56.30;;;;;;6198502;28;20018;-75
2022/06/14 16:54:31;;;;;;;25.63;8.38;;;23.30;56.30;;;;;;6217036;28;20473;-75
2022/06/14 16:57:57;;;;;;;27.40;8.40;;;23.40;56.70;;;;;;6190179;28;20520;-76
2022/06/14 17:01:16;;;;;;;27.58;8.70;;;23.40;55.90;;;;;;6197260;28;20037;-73
2022/06/14 17:04:27;;;;;;;32.88;8.18;;;23.50;54.80;;;;;;6215250;28;20033;-77
2022/06/14 17:08:00;;;;;;;1999.90;994.65;;;23.50;55.90;;;;;;6197921;28;20480;-76